createdAt,value
2022-11-15T00:01:10.950Z,98589.00
2022-11-15T00:03:37.719Z,98579.78
2022-11-15T00:06:06.020Z,98576.97
2022-11-15T00:08:33.958Z,98580.22
2022-11-15T00:11:02.635Z,98575.00
2022-11-15T00:13:31.257Z,98580.66
2022-11-15T00:15:59.980Z,98576.13
2022-11-15T00:18:27.115Z,98579.19
2022-11-15T00:20:53.933Z,98584.25
2022-11-15T00:23:20.806Z,98578.91
2022-11-15T00:25:47.428Z,98587.34
2022-11-15T00:28:14.175Z,98577.13
2022-11-15T00:30:40.889Z,98569.53
2022-11-15T00:33:08.340Z,98581.97
2022-11-15T00:35:36.102Z,98572.00
2022-11-15T00:38:04.089Z,98572.00
2022-11-15T00:40:31.058Z,98572.56
2022-11-15T00:42:58.198Z,98574.41
2022-11-15T00:45:28.182Z,98567.78
2022-11-15T00:47:55.152Z,98573.19
2022-11-15T00:50:21.995Z,98574.03
2022-11-15T00:52:48.875Z,98577.66
2022-11-15T00:55:17.825Z,98572.91
2022-11-15T00:57:45.140Z,98563.56
2022-11-15T01:00:12.193Z,98568.38
2022-11-15T01:02:39.323Z,98556.22
2022-11-15T01:05:07.067Z,98561.84
2022-11-15T01:07:36.373Z,98563.03
2022-11-15T01:10:06.339Z,98554.84
2022-11-15T01:12:36.234Z,98555.47
2022-11-15T01:15:06.847Z,98555.91
2022-11-15T01:17:33.497Z,98562.09
2022-11-15T01:20:00.386Z,98557.31
2022-11-15T01:22:27.170Z,98549.53
2022-11-15T01:24:54.010Z,98554.13
2022-11-15T01:27:20.832Z,98554.31
2022-11-15T01:29:47.648Z,98554.53
2022-11-15T01:32:14.755Z,98554.97
2022-11-15T01:34:41.629Z,98548.75
2022-11-15T01:37:08.230Z,98543.91
2022-11-15T01:39:35.980Z,98539.31
2022-11-15T01:42:03.428Z,98533.13
2022-11-15T01:44:43.869Z,98533.50
2022-11-15T01:47:17.117Z,98538.88
2022-11-15T01:49:58.891Z,98526.69
2022-11-15T01:52:28.600Z,98525.84
2022-11-15T01:55:07.558Z,98522.66
2022-11-15T01:57:35.360Z,98514.69
2022-11-15T02:00:04.966Z,98509.13
2022-11-15T02:02:36.740Z,98507.34
2022-11-15T02:05:04.330Z,98500.97
2022-11-15T02:07:33.262Z,98505.13
2022-11-15T02:10:07.911Z,98495.72
2022-11-15T02:12:35.002Z,98493.31
2022-11-15T02:15:02.864Z,98493.94
2022-11-15T02:17:37.719Z,98490.94
2022-11-15T02:20:21.972Z,98495.16
2022-11-15T02:23:06.801Z,98502.34
2022-11-15T02:26:12.950Z,98491.56
2022-11-15T02:29:11.676Z,98497.50
2022-11-15T02:31:44.418Z,98485.13
2022-11-15T02:34:30.472Z,98479.94
2022-11-15T02:37:26.473Z,98476.34
2022-11-15T02:40:05.232Z,98473.94
2022-11-15T02:42:55.326Z,98466.34
2022-11-15T02:45:30.887Z,98465.84
2022-11-15T02:48:00.767Z,98461.22
2022-11-15T02:50:31.095Z,98461.66
2022-11-15T02:52:58.039Z,98457.25
2022-11-15T02:55:36.314Z,98458.44
2022-11-15T02:58:36.371Z,98448.06
2022-11-15T03:01:15.380Z,98448.06
2022-11-15T03:03:57.252Z,98444.63
2022-11-15T03:06:47.196Z,98437.50
2022-11-15T03:09:25.683Z,98435.75
2022-11-15T03:12:02.296Z,98435.38
2022-11-15T03:14:36.883Z,98441.41
2022-11-15T03:17:16.068Z,98427.59
2022-11-15T03:19:49.206Z,98433.72
2022-11-15T03:22:23.931Z,98433.97
2022-11-15T03:25:02.765Z,98438.06
2022-11-15T03:27:37.904Z,98429.22
2022-11-15T03:30:08.282Z,98426.50
2022-11-15T03:32:57.480Z,98418.72
2022-11-15T03:35:30.038Z,98418.91
2022-11-15T03:37:56.952Z,98425.53
2022-11-15T03:40:47.775Z,98426.38
2022-11-15T03:43:17.300Z,98423.59
2022-11-15T03:46:05.065Z,98415.25
2022-11-15T03:48:38.125Z,98418.25
2022-11-15T03:51:06.562Z,98416.84
2022-11-15T03:53:36.275Z,98407.66
2022-11-15T03:56:04.166Z,98412.22
2022-11-15T03:58:32.234Z,98408.81
2022-11-15T04:01:02.388Z,98409.38
2022-11-15T04:03:29.866Z,98414.56
2022-11-15T04:05:59.726Z,98412.03
2022-11-15T04:08:27.049Z,98417.03
2022-11-15T04:10:54.522Z,98424.03
2022-11-15T04:13:22.092Z,98419.63
2022-11-15T04:15:57.152Z,98417.47
2022-11-15T04:18:26.776Z,98412.88
2022-11-15T04:21:14.570Z,98410.91
2022-11-15T04:24:01.393Z,98405.34
2022-11-15T04:26:29.326Z,98408.72
2022-11-15T04:29:17.208Z,98403.38
2022-11-15T04:31:44.959Z,98402.56
2022-11-15T04:34:12.700Z,98420.50
2022-11-15T04:36:58.024Z,98416.72
2022-11-15T04:39:28.812Z,98401.59
2022-11-15T04:41:55.640Z,98398.38
2022-11-15T04:44:25.745Z,98396.78
2022-11-15T04:46:56.659Z,98397.38
2022-11-15T04:49:24.245Z,98393.75
2022-11-15T04:51:56.743Z,98390.97
2022-11-15T04:54:24.180Z,98388.97
2022-11-15T04:59:34.059Z,98380.03
2022-11-15T05:02:01.650Z,98374.81
2022-11-15T05:04:28.745Z,98374.44
2022-11-15T05:06:57.947Z,98373.63
2022-11-15T05:09:26.264Z,98369.44
2022-11-15T05:11:56.209Z,98368.84
2022-11-15T05:14:23.373Z,98367.63
2022-11-15T05:16:50.616Z,98356.50
2022-11-15T05:19:19.219Z,98369.69
2022-11-15T05:21:51.701Z,98366.69
2022-11-15T05:24:18.758Z,98363.13
2022-11-15T05:26:45.583Z,98368.91
2022-11-15T05:29:12.866Z,98369.91
2022-11-15T05:31:42.794Z,98371.88
2022-11-15T05:34:09.835Z,98379.50
2022-11-15T05:36:45.858Z,98369.13
2022-11-15T05:39:12.885Z,98364.31
2022-11-15T05:41:41.672Z,98362.91
2022-11-15T05:44:11.596Z,98360.94
2022-11-15T05:46:44.074Z,98355.94
2022-11-15T05:49:16.647Z,98359.94
2022-11-15T05:51:45.812Z,98360.75
2022-11-15T05:54:17.003Z,98358.75
2022-11-15T05:56:47.528Z,98354.75
2022-11-15T05:59:14.575Z,98359.16
2022-11-15T06:01:42.836Z,98359.53
2022-11-15T06:04:40.806Z,98347.19
2022-11-15T06:07:56.870Z,98357.53
2022-11-15T06:10:55.549Z,98339.00
2022-11-15T06:13:41.440Z,98343.78
2022-11-15T06:16:33.921Z,98345.97
2022-11-15T06:29:53.842Z,98368.69
2022-11-15T06:32:43.345Z,98373.06
2022-11-15T06:35:12.160Z,98369.47
2022-11-15T06:40:35.411Z,98376.25
2022-11-15T06:43:04.081Z,98369.47
2022-11-15T06:45:52.233Z,98371.88
2022-11-15T06:48:29.682Z,98368.50
2022-11-15T06:51:08.461Z,98366.31
2022-11-15T06:53:56.000Z,98360.53
2022-11-15T06:56:57.684Z,98359.50
2022-11-15T06:59:46.728Z,98361.84
2022-11-15T08:04:18.110Z,98343.09
2022-11-15T08:07:09.041Z,98349.84
2022-11-15T08:13:20.481Z,98327.13
2022-11-15T08:15:57.511Z,98332.09
2022-11-15T08:18:24.708Z,98340.91
2022-11-15T08:20:51.315Z,98334.31
2022-11-15T08:23:18.056Z,98328.03
2022-11-15T08:25:47.433Z,98320.00
2022-11-15T08:28:20.152Z,98323.47
2022-11-15T08:30:47.173Z,98327.25
2022-11-15T08:33:16.392Z,98322.13
2022-11-15T08:35:44.294Z,98321.50
2022-11-15T08:38:12.066Z,98322.72
2022-11-15T08:40:42.582Z,98323.53
2022-11-15T08:43:12.090Z,98309.31
2022-11-15T08:45:38.780Z,98313.78
2022-11-15T08:48:05.803Z,98301.84
2022-11-15T08:50:33.011Z,98306.03
2022-11-15T08:53:11.892Z,98308.31
2022-11-15T08:55:39.614Z,98301.31
2022-11-15T08:58:07.053Z,98295.22
2022-11-15T09:00:34.727Z,98291.81
2022-11-15T09:03:05.817Z,98287.19
2022-11-15T09:05:34.780Z,98290.38
2022-11-15T09:08:19.146Z,98283.78
2022-11-15T09:11:04.880Z,98281.66
2022-11-15T09:13:34.763Z,98273.97
2022-11-15T09:16:03.060Z,98271.81
2022-11-15T09:18:30.086Z,98270.03
2022-11-15T09:20:58.762Z,98261.63
2022-11-15T09:23:26.910Z,98264.31
2022-11-15T09:26:11.819Z,98262.22
2022-11-15T09:28:42.944Z,98260.78
2022-11-15T09:31:10.467Z,98263.22
2022-11-15T09:33:37.942Z,98257.16
2022-11-15T09:36:13.919Z,98248.13
2022-11-15T09:38:40.748Z,98252.72
2022-11-15T09:41:16.459Z,98240.41
2022-11-15T09:44:04.685Z,98241.72
2022-11-15T09:46:50.376Z,98238.72
2022-11-15T09:49:18.355Z,98238.56
2022-11-15T09:51:48.665Z,98240.63
2022-11-15T09:54:52.652Z,98241.56
2022-11-15T09:57:29.221Z,98238.84
2022-11-15T10:00:45.301Z,98235.97
2022-11-15T10:03:22.349Z,98230.34
2022-11-15T10:05:51.781Z,98237.53
2022-11-15T10:08:56.007Z,98230.06
2022-11-15T10:11:38.933Z,98219.63
2022-11-15T10:14:12.811Z,98221.97
2022-11-15T10:16:45.281Z,98206.97
2022-11-15T10:20:05.906Z,98208.03
2022-11-15T10:22:41.305Z,98201.69
2022-11-15T10:25:37.746Z,98199.06
2022-11-15T10:28:24.119Z,98189.28
2022-11-15T10:30:54.888Z,98185.66
2022-11-15T10:33:30.986Z,98184.59
2022-11-15T10:36:11.288Z,98178.03
2022-11-15T10:38:54.565Z,98176.75
2022-11-15T10:41:24.242Z,98166.50
2022-11-15T10:44:13.000Z,98165.41
2022-11-15T10:46:51.238Z,98155.97
2022-11-15T10:49:23.496Z,98153.06
2022-11-15T10:51:57.635Z,98147.81
2022-11-15T10:55:03.604Z,98158.84
2022-11-15T11:00:45.200Z,98141.25
2022-11-15T11:06:56.244Z,98135.75
2022-11-15T11:09:29.603Z,98129.44
2022-11-15T11:11:57.805Z,98133.91
2022-11-15T11:14:35.914Z,98126.53
2022-11-15T11:17:35.638Z,98121.81
2022-11-15T11:20:21.226Z,98122.63
2022-11-15T11:23:52.601Z,98118.16
2022-11-15T11:27:02.041Z,98117.63
2022-11-15T11:29:43.899Z,98111.03
2022-11-15T11:32:38.523Z,98109.47
2022-11-15T11:35:23.806Z,98102.88
2022-11-15T11:37:55.504Z,98108.16
2022-11-15T11:40:38.094Z,98098.13
2022-11-15T11:44:00.585Z,98092.06
2022-11-15T11:46:32.785Z,98094.44
2022-11-15T11:52:25.248Z,98085.50
2022-11-15T11:58:15.654Z,98074.97
2022-11-15T12:00:53.345Z,98074.72
2022-11-15T12:03:38.150Z,98077.34
2022-11-15T12:06:31.355Z,98069.44
2022-11-15T12:09:14.972Z,98066.03
2022-11-15T12:11:53.571Z,98063.38
2022-11-15T12:14:39.489Z,98065.22
2022-11-15T12:19:50.211Z,98066.28
2022-11-15T12:22:33.740Z,98062.38
2022-11-15T12:25:34.331Z,98059.72
2022-11-15T12:36:49.880Z,98049.31
2022-11-15T12:39:18.222Z,98051.38
2022-11-15T12:42:06.912Z,98044.00
2022-11-15T12:44:34.337Z,98040.78
2022-11-15T12:47:05.739Z,98031.56
2022-11-15T12:49:38.561Z,98037.41
2022-11-15T12:52:08.656Z,98036.34
2022-11-15T12:54:41.660Z,98036.59
2022-11-15T12:57:10.228Z,98024.47
2022-11-15T13:00:14.024Z,98023.66
2022-11-15T13:02:44.691Z,98016.06
2022-11-15T13:05:17.399Z,98019.00
2022-11-15T13:07:45.118Z,98026.19
2022-11-15T13:10:12.085Z,98023.81
2022-11-15T13:15:57.230Z,98013.97
2022-11-15T13:18:32.447Z,98012.94
2022-11-15T13:21:02.990Z,98013.47
2022-11-15T13:23:32.281Z,98006.91
2022-11-15T13:26:19.219Z,98004.00
2022-11-15T13:28:49.522Z,97996.13
2022-11-15T13:31:22.344Z,97997.97
2022-11-15T13:33:49.284Z,97987.72
2022-11-15T13:36:35.739Z,97990.88
2022-11-15T13:39:08.130Z,97982.75
2022-11-15T13:41:37.226Z,97983.56
2022-11-15T13:44:08.062Z,97975.69
2022-11-15T13:46:35.608Z,97972.81
2022-11-15T13:49:07.167Z,97971.25
2022-11-15T13:51:46.380Z,97961.00
2022-11-15T13:54:28.495Z,97967.03
2022-11-15T13:56:58.677Z,97958.09
2022-11-15T13:59:45.149Z,97960.19
2022-11-15T14:02:19.063Z,97963.06
2022-11-15T14:04:56.932Z,97954.66
2022-11-15T14:07:28.314Z,97955.16
2022-11-15T14:09:55.366Z,97960.72
2022-11-15T14:12:33.071Z,97953.09
2022-11-15T14:15:04.197Z,97955.97
2022-11-15T14:17:33.178Z,97956.53
2022-11-15T14:20:00.250Z,97952.38
2022-11-15T14:22:29.539Z,97955.25
2022-11-15T14:25:18.471Z,97947.38
2022-11-15T14:28:06.093Z,97950.84
2022-11-15T14:30:36.821Z,97947.97
2022-11-15T14:33:04.228Z,97939.81
2022-11-15T14:35:31.892Z,97937.47
2022-11-15T14:38:11.008Z,97934.06
2022-11-15T14:40:44.070Z,97932.50
2022-11-15T14:43:15.097Z,97932.00
2022-11-15T14:45:42.538Z,97935.41
2022-11-15T14:48:09.526Z,97926.16
2022-11-15T14:50:50.798Z,97925.91
2022-11-15T14:53:19.672Z,97925.16
2022-11-15T14:55:47.593Z,97919.34
2022-11-15T14:58:14.727Z,97914.63
2022-11-15T15:00:47.457Z,97913.84
2022-11-15T15:03:17.846Z,97910.41
2022-11-15T15:05:50.934Z,97906.25
2022-11-15T15:08:21.405Z,97900.44
2022-11-15T15:10:49.466Z,97910.13
2022-11-15T15:16:03.587Z,97896.47
2022-11-15T15:18:33.648Z,97890.69
2022-11-15T15:21:08.248Z,97883.88
2022-11-15T15:23:37.591Z,97880.16
2022-11-15T15:26:06.392Z,97872.81
2022-11-15T15:28:35.057Z,97870.44
2022-11-15T15:31:02.387Z,97873.88
2022-11-15T15:33:29.374Z,97880.16
2022-11-15T15:38:47.582Z,97871.72
2022-11-15T15:43:59.379Z,97880.31
2022-11-15T15:55:14.076Z,97884.56
2022-11-15T16:12:36.082Z,97866.22
2022-11-15T16:15:07.160Z,97874.34
2022-11-15T16:17:38.553Z,97869.09
2022-11-15T16:20:06.151Z,97869.66
2022-11-15T16:22:35.881Z,97867.84
2022-11-15T16:25:02.809Z,97865.25
2022-11-15T16:27:36.876Z,97869.69
2022-11-15T16:30:04.838Z,97867.88
2022-11-15T16:32:35.519Z,97868.13
2022-11-15T16:35:02.744Z,97867.34
2022-11-15T16:37:32.391Z,97866.03
2022-11-15T16:40:02.581Z,97869.69
2022-11-15T16:42:33.262Z,97857.09
2022-11-15T16:45:01.882Z,97859.19
2022-11-15T16:47:29.430Z,97861.22
2022-11-15T16:49:57.060Z,97856.03
2022-11-15T16:52:23.928Z,97852.38
2022-11-15T16:54:50.755Z,97850.31
2022-11-15T16:57:19.618Z,97848.72
2022-11-15T16:59:50.054Z,97845.03
2022-11-15T17:02:17.404Z,97837.34
2022-11-15T17:04:47.537Z,97844.72
2022-11-15T17:07:17.542Z,97833.97
2022-11-15T17:09:45.512Z,97834.72
2022-11-15T17:12:13.428Z,97828.16
2022-11-15T17:14:42.136Z,97825.00
2022-11-15T17:17:10.779Z,97822.09
2022-11-15T17:19:40.528Z,97815.28
2022-11-15T17:22:08.154Z,97810.25
2022-11-15T17:24:39.156Z,97813.66
2022-11-15T17:27:08.940Z,97810.03
2022-11-15T17:29:36.467Z,97817.13
2022-11-15T17:32:03.600Z,97803.78
2022-11-15T17:34:30.162Z,97800.41
2022-11-15T17:36:56.769Z,97796.72
2022-11-15T17:39:24.868Z,97800.66
2022-11-15T17:41:51.535Z,97805.13
2022-11-15T17:44:21.738Z,97805.31
2022-11-15T17:46:48.348Z,97797.47
2022-11-15T17:49:15.744Z,97794.06
2022-11-15T17:51:49.623Z,97788.53
2022-11-15T17:54:17.500Z,97784.09
2022-11-15T17:56:45.535Z,97785.41
2022-11-15T17:59:21.199Z,97784.59
2022-11-15T18:01:50.761Z,97780.69
2022-11-15T18:10:01.054Z,97775.91
2022-11-15T18:15:11.971Z,97770.06
2022-11-15T18:17:39.201Z,97759.38
2022-11-15T18:20:10.951Z,97758.06
2022-11-15T18:22:42.261Z,97756.56
2022-11-15T18:25:09.685Z,97752.69
2022-11-15T18:27:37.189Z,97755.81
2022-11-15T18:30:06.403Z,97749.28
2022-11-15T18:32:33.243Z,97746.66
2022-11-15T18:35:03.717Z,97744.81
2022-11-15T18:37:36.145Z,97748.44
2022-11-15T18:40:06.319Z,97740.59
2022-11-15T18:42:33.176Z,97733.78
2022-11-15T18:45:02.561Z,97732.75
2022-11-15T18:47:34.641Z,97739.28
2022-11-15T18:50:05.014Z,97735.38
2022-11-15T18:52:35.591Z,97740.59
2022-11-15T18:55:02.682Z,97733.03
2022-11-15T18:57:32.965Z,97733.00
2022-11-15T19:00:00.206Z,97732.25
2022-11-15T19:02:30.830Z,97724.88
2022-11-15T19:07:52.225Z,97715.19
2022-11-15T19:10:19.384Z,97717.31
2022-11-15T19:12:49.455Z,97710.97
2022-11-15T19:15:19.403Z,97712.81
2022-11-15T19:17:55.008Z,97714.34
2022-11-15T19:20:24.457Z,97722.19
2022-11-15T19:22:57.552Z,97715.41
2022-11-15T19:25:32.674Z,97721.25
2022-11-15T19:28:02.360Z,97712.63
2022-11-15T19:30:35.435Z,97715.78
2022-11-15T19:33:08.121Z,97717.59
2022-11-15T19:35:35.334Z,97722.03
2022-11-15T19:38:03.174Z,97718.28
2022-11-15T19:40:35.859Z,97725.81
2022-11-15T19:43:06.465Z,97716.66
2022-11-15T19:45:40.918Z,97713.72
2022-11-15T19:48:09.656Z,97720.25
2022-11-15T19:50:40.241Z,97713.22
2022-11-15T19:53:08.248Z,97718.69
2022-11-15T19:55:47.901Z,97718.69
2022-11-15T19:58:25.784Z,97709.81
2022-11-15T20:01:03.327Z,97704.84
2022-11-15T20:06:27.871Z,97700.66
2022-11-15T20:09:14.686Z,97705.59
2022-11-15T20:17:09.906Z,97710.34
2022-11-15T20:19:41.820Z,97711.94
2022-11-15T20:22:19.488Z,97704.13
2022-11-15T20:27:49.832Z,97709.38
2022-11-15T20:30:24.658Z,97708.59
2022-11-15T20:32:51.920Z,97707.53
2022-11-15T20:35:32.995Z,97705.94
2022-11-15T20:38:00.040Z,97708.81
2022-11-15T20:40:26.856Z,97703.81
2022-11-15T20:42:54.514Z,97706.69
2022-11-15T20:45:21.631Z,97697.28
2022-11-15T20:47:48.796Z,97704.38
2022-11-15T20:50:40.961Z,97690.72
2022-11-15T20:53:03.644Z,97693.91
2022-11-15T20:55:30.746Z,97684.66
2022-11-15T20:58:06.315Z,97680.72
2022-11-15T21:00:47.261Z,97680.75
2022-11-15T21:03:14.813Z,97684.94
2022-11-15T21:05:45.789Z,97693.78
2022-11-15T21:08:13.300Z,97689.09
2022-11-15T21:10:59.850Z,97677.34
2022-11-15T21:16:12.524Z,97663.44
2022-11-15T21:18:41.075Z,97658.50
2022-11-15T21:21:17.515Z,97652.97
2022-11-15T21:23:45.152Z,97655.31
2022-11-15T21:26:14.022Z,97656.81
2022-11-15T21:28:42.199Z,97650.78
2022-11-15T21:33:53.173Z,97647.41
2022-11-15T21:36:25.283Z,97646.34
2022-11-15T21:38:53.111Z,97635.91
2022-11-15T21:41:31.875Z,97634.09
2022-11-15T21:44:01.880Z,97634.31
2022-11-15T21:46:30.015Z,97628.19
2022-11-15T21:49:02.881Z,97630.72
2022-11-15T21:51:32.441Z,97629.97
2022-11-15T21:54:02.995Z,97629.09
2022-11-15T21:59:22.847Z,97623.78
2022-11-15T22:02:12.505Z,97620.31
2022-11-15T22:05:02.280Z,97615.22
2022-11-15T22:07:34.760Z,97621.69
2022-11-15T22:10:05.864Z,97619.56
2022-11-15T22:12:42.082Z,97622.38
2022-11-15T22:15:13.783Z,97628.09
2022-11-15T22:18:02.024Z,97627.00
2022-11-15T22:20:44.369Z,97620.41
2022-11-15T22:23:21.995Z,97621.16
2022-11-15T22:28:37.232Z,97609.09
2022-11-15T22:31:08.673Z,97605.88
2022-11-15T22:33:51.669Z,97605.34
2022-11-15T22:36:20.247Z,97595.13
2022-11-15T22:38:51.011Z,97596.97
2022-11-15T22:41:20.732Z,97590.69
2022-11-15T22:43:55.608Z,97583.88
2022-11-15T22:46:22.674Z,97580.78
2022-11-15T22:48:52.644Z,97566.66
2022-11-15T22:51:22.895Z,97559.88
2022-11-15T22:53:52.817Z,97558.00
2022-11-15T22:56:20.511Z,97548.59
2022-11-15T22:58:53.452Z,97540.69
2022-11-15T23:01:22.503Z,97536.16
2022-11-15T23:03:50.654Z,97530.41
2022-11-15T23:06:21.037Z,97532.47
2022-11-15T23:08:54.553Z,97529.28
2022-11-15T23:11:41.995Z,97528.00
2022-11-15T23:14:12.809Z,97531.88
2022-11-15T23:16:48.134Z,97530.31
2022-11-15T23:19:15.755Z,97533.44
2022-11-15T23:22:05.650Z,97531.56
2022-11-15T23:24:34.339Z,97525.09
2022-11-15T23:27:04.384Z,97522.34
2022-11-15T23:29:31.931Z,97518.91
2022-11-15T23:32:17.324Z,97523.28
2022-11-15T23:34:50.894Z,97523.41
2022-11-15T23:37:18.119Z,97518.13
2022-11-15T23:39:56.413Z,97529.84
2022-11-15T23:42:30.220Z,97531.56
2022-11-15T23:44:59.467Z,97525.50
2022-11-15T23:47:26.778Z,97517.47
2022-11-15T23:49:54.154Z,97518.03
2022-11-15T23:52:26.725Z,97504.53
2022-11-15T23:54:53.667Z,97505.78
2022-11-15T23:57:20.689Z,97506.47
2022-11-15T23:59:47.842Z,97507.72
